Terminal Aerodrome Forecast
Issued by NWS Wilmington, NC

Home | Current Version | Previous Version | Text Only | Print | Product List | Glossary On
Versions: 1 2 3 4 5 6 7 8 9 10 11 12 13 14 15 16 17 18 19 20 21
000
FTUS42 KILM 190759 AAA
TAFLBT
TAF AMD
KLBT 190759Z 1908/2006 08005KT 6SM -RADZ BR OVC007
     FM191500 10006KT P6SM BKN007 BKN015
     FM191900 13008KT P6SM BKN015
     FM192100 15008KT P6SM SCT020 BKN040
     FM200200 15004KT P6SM BKN015
      TEMPO 2002/2006 2SM BR OVC003=

USA.gov is the U.S. government's official web portal to all federal, state and local government web resources and services.